Time,TemperatureF,DewpointF,PressureIn,WindDirection,WindDirectionDegrees,WindSpeedMPH,WindSpeedGustMPH,Humidity,HourlyPrecipIn,Conditions,Clouds,dailyrainin,SolarRadiationWatts/m^2,SoftwareType,DateUTC
2017-04-30 00:03:00,57.3,53.5,29.92,ENE,68,0.0,0.0,87,0.00,,,0.28,0,Wunderground v.1.15,2017-04-29 22:03:00,
2017-04-30 00:09:00,57.3,53.5,29.92,ENE,68,0.0,0.0,87,0.00,,,0.28,0,Wunderground v.1.15,2017-04-29 22:09:00,
2017-04-30 00:15:00,57.3,53.5,29.92,ENE,68,0.0,0.0,87,0.00,,,0.28,0,Wunderground v.1.15,2017-04-29 22:15:00,
2017-04-30 00:20:00,57.3,53.5,29.92,ENE,68,0.0,0.0,87,0.00,,,0.00,0,Wunderground v.1.15,2017-04-29 22:20:00,
2017-04-30 00:26:00,57.3,53.5,29.92,ENE,68,0.0,0.0,87,0.00,,,0.00,0,Wunderground v.1.15,2017-04-29 22:26:00,
2017-04-30 00:32:00,57.3,53.5,29.92,ENE,68,0.0,0.0,87,0.00,,,0.00,0,Wunderground v.1.15,2017-04-29 22:32:00,
2017-04-30 00:38:00,57.3,53.5,29.92,ENE,68,0.0,0.0,87,0.00,,,0.00,0,Wunderground v.1.15,2017-04-29 22:38:00,
2017-04-30 00:43:00,57.3,53.5,29.92,ENE,68,0.0,0.0,87,0.00,,,0.00,0,Wunderground v.1.15,2017-04-29 22:43:00,
2017-04-30 00:49:00,57.3,53.5,29.92,ENE,68,0.0,0.0,87,0.00,,,0.00,0,Wunderground v.1.15,2017-04-29 22:49:00,
2017-04-30 00:55:00,57.3,53.5,29.92,ENE,68,0.0,0.0,87,0.00,,,0.00,0,Wunderground v.1.15,2017-04-29 22:55:00,
2017-04-30 01:01:00,57.3,53.5,29.92,ENE,68,0.0,0.0,87,0.00,,,0.00,0,Wunderground v.1.15,2017-04-29 23:01:00,
2017-04-30 01:06:00,57.3,53.5,29.93,ENE,68,0.0,0.0,87,0.00,,,0.00,0,Wunderground v.1.15,2017-04-29 23:06:00,
2017-04-30 01:12:00,57.4,53.6,29.93,ENE,68,0.0,0.0,87,0.00,,,0.00,0,Wunderground v.1.15,2017-04-29 23:12:00,
2017-04-30 01:18:00,57.4,53.6,29.92,ENE,68,0.0,0.0,87,0.00,,,0.00,0,Wunderground v.1.15,2017-04-29 23:18:00,
2017-04-30 01:24:00,57.3,53.5,29.92,ENE,68,0.0,0.0,87,0.00,,,0.00,0,Wunderground v.1.15,2017-04-29 23:24:00,
2017-04-30 01:29:00,57.3,53.5,29.92,ENE,68,0.0,0.0,87,0.00,,,0.00,0,Wunderground v.1.15,2017-04-29 23:29:00,
2017-04-30 01:35:00,57.3,53.5,29.92,ENE,65,0.0,0.0,87,0.00,,,0.00,0,Wunderground v.1.15,2017-04-29 23:35:00,
2017-04-30 01:41:00,57.4,53.6,29.92,ENE,62,0.0,0.0,87,0.00,,,0.00,0,Wunderground v.1.15,2017-04-29 23:41:00,
2017-04-30 01:47:00,57.3,53.5,29.92,NE,51,2.0,2.0,87,0.00,,,0.00,0,Wunderground v.1.15,2017-04-29 23:47:00,
2017-04-30 01:52:00,57.1,53.3,29.92,NE,51,0.0,1.0,87,0.00,,,0.00,0,Wunderground v.1.15,2017-04-29 23:52:00,
2017-04-30 01:58:00,57.1,53.3,29.92,NE,51,0.0,1.0,87,0.00,,,0.00,0,Wunderground v.1.15,2017-04-29 23:58:00,
2017-04-30 02:03:00,57.1,53.3,29.92,NE,34,0.0,1.0,87,0.00,,,0.00,0,Wunderground v.1.15,2017-04-30 00:03:00,
2017-04-30 02:09:00,57.1,53.0,29.92,NNE,31,0.0,3.0,86,0.00,,,0.00,0,Wunderground v.1.15,2017-04-30 00:09:00,
2017-04-30 02:14:00,57.3,53.1,29.92,NNE,30,0.0,1.0,86,0.00,,,0.00,0,Wunderground v.1.15,2017-04-30 00:14:00,
2017-04-30 02:19:00,57.3,53.1,29.92,NNE,30,0.0,1.0,86,0.00,,,0.00,0,Wunderground v.1.15,2017-04-30 00:19:00,
2017-04-30 02:30:00,57.3,53.1,29.92,NNE,30,0.0,0.0,86,0.00,,,0.00,0,Wunderground v.1.15,2017-04-30 00:30:00,
2017-04-30 02:35:00,57.3,53.1,29.91,NNE,30,0.0,0.0,86,0.00,,,0.00,0,Wunderground v.1.15,2017-04-30 00:35:00,
2017-04-30 02:41:00,57.4,53.2,29.91,NNE,30,0.0,0.0,86,0.00,,,0.00,0,Wunderground v.1.15,2017-04-30 00:41:00,
2017-04-30 02:46:00,57.4,53.2,29.91,NNE,30,0.0,0.0,86,0.00,,,0.00,0,Wunderground v.1.15,2017-04-30 00:46:00,
2017-04-30 02:52:00,57.4,53.2,29.91,NNE,30,0.0,0.0,86,0.00,,,0.00,0,Wunderground v.1.15,2017-04-30 00:52:00,
2017-04-30 02:57:00,57.4,53.2,29.91,NNE,30,0.0,0.0,86,0.00,,,0.00,0,Wunderground v.1.15,2017-04-30 00:57:00,
2017-04-30 03:02:00,57.4,53.2,29.91,NNE,30,0.0,0.0,86,0.00,,,0.00,0,Wunderground v.1.15,2017-04-30 01:02:00,
2017-04-30 03:07:00,57.6,53.4,29.91,NNE,30,0.0,0.0,86,0.00,,,0.00,0,Wunderground v.1.15,2017-04-30 01:07:00,
2017-04-30 03:13:00,57.6,53.4,29.91,NNE,30,0.0,0.0,86,0.00,,,0.00,0,Wunderground v.1.15,2017-04-30 01:13:00,
2017-04-30 03:18:00,57.4,53.2,29.90,NNE,30,0.0,0.0,86,0.00,,,0.00,0,Wunderground v.1.15,2017-04-30 01:18:00,
2017-04-30 03:25:00,57.6,53.4,29.90,NNE,30,0.0,0.0,86,0.00,,,0.00,0,Wunderground v.1.15,2017-04-30 01:25:00,
2017-04-30 03:30:00,57.6,53.4,29.90,NNE,30,0.0,0.0,86,0.00,,,0.00,0,Wunderground v.1.15,2017-04-30 01:30:00,
2017-04-30 03:35:00,57.6,53.4,29.90,NNE,30,0.0,0.0,86,0.00,,,0.00,0,Wunderground v.1.15,2017-04-30 01:35:00,
2017-04-30 03:41:00,57.6,53.4,29.90,NNE,30,0.0,0.0,86,0.00,,,0.00,0,Wunderground v.1.15,2017-04-30 01:41:00,
2017-04-30 03:46:00,57.6,53.4,29.90,NNE,30,0.0,0.0,86,0.00,,,0.00,0,Wunderground v.1.15,2017-04-30 01:46:00,
2017-04-30 03:51:00,57.6,53.4,29.90,NNE,30,0.0,0.0,86,0.00,,,0.00,0,Wunderground v.1.15,2017-04-30 01:51:00,
2017-04-30 03:57:00,57.4,53.2,29.90,NNE,30,0.0,0.0,86,0.00,,,0.00,0,Wunderground v.1.15,2017-04-30 01:57:00,
2017-04-30 04:02:00,57.4,53.2,29.90,NNE,30,0.0,0.0,86,0.00,,,0.00,0,Wunderground v.1.15,2017-04-30 02:02:00,
2017-04-30 04:08:00,57.4,53.2,29.90,NNE,30,0.0,0.0,86,0.00,,,0.00,0,Wunderground v.1.15,2017-04-30 02:08:00,
2017-04-30 04:13:00,57.6,53.4,29.90,NNE,30,0.0,0.0,86,0.00,,,0.00,0,Wunderground v.1.15,2017-04-30 02:13:00,
2017-04-30 04:18:00,57.6,53.4,29.90,NNE,30,0.0,0.0,86,0.00,,,0.00,0,Wunderground v.1.15,2017-04-30 02:18:00,
2017-04-30 04:24:00,57.4,53.2,29.90,NNE,30,0.0,0.0,86,0.00,,,0.00,0,Wunderground v.1.15,2017-04-30 02:24:00,
2017-04-30 04:29:00,57.4,53.2,29.90,NNE,30,0.0,0.0,86,0.00,,,0.01,0,Wunderground v.1.15,2017-04-30 02:29:00,
2017-04-30 04:34:00,57.4,53.2,29.90,NNE,30,0.0,0.0,86,0.00,,,0.01,0,Wunderground v.1.15,2017-04-30 02:34:00,
2017-04-30 04:40:00,57.4,53.2,29.90,NNE,30,0.0,0.0,86,0.00,,,0.01,0,Wunderground v.1.15,2017-04-30 02:40:00,
2017-04-30 04:45:00,57.4,53.2,29.90,NNE,30,0.0,0.0,86,0.00,,,0.01,0,Wunderground v.1.15,2017-04-30 02:45:00,
2017-04-30 04:50:00,57.4,53.2,29.90,NNE,30,0.0,0.0,86,0.00,,,0.01,0,Wunderground v.1.15,2017-04-30 02:50:00,
2017-04-30 04:56:00,57.4,53.2,29.90,NNE,30,0.0,0.0,86,0.00,,,0.01,0,Wunderground v.1.15,2017-04-30 02:56:00,
2017-04-30 05:01:00,57.4,53.2,29.90,NNE,30,0.0,0.0,86,0.00,,,0.01,0,Wunderground v.1.15,2017-04-30 03:01:00,
2017-04-30 05:06:00,57.3,53.1,29.89,NNE,28,0.0,3.0,86,0.00,,,0.01,0,Wunderground v.1.15,2017-04-30 03:06:00,
2017-04-30 05:12:00,57.4,53.2,29.89,NNE,28,0.0,0.0,86,0.00,,,0.01,0,Wunderground v.1.15,2017-04-30 03:12:00,
2017-04-30 05:17:00,57.4,53.2,29.90,NNE,28,0.0,0.0,86,0.00,,,0.01,0,Wunderground v.1.15,2017-04-30 03:17:00,
2017-04-30 05:23:00,57.4,53.6,29.90,NNE,28,0.0,0.0,87,0.00,,,0.01,0,Wunderground v.1.15,2017-04-30 03:23:00,
2017-04-30 05:28:00,57.6,53.8,29.90,NNE,28,0.0,0.0,87,0.00,,,0.01,0,Wunderground v.1.15,2017-04-30 03:28:00,
2017-04-30 05:33:00,57.6,53.8,29.90,NNE,17,0.0,5.0,87,0.00,,,0.01,0,Wunderground v.1.15,2017-04-30 03:33:00,
2017-04-30 05:39:00,57.6,53.8,29.90,NNE,17,0.0,5.0,87,0.00,,,0.01,0,Wunderground v.1.15,2017-04-30 03:39:00,
2017-04-30 05:44:00,57.6,53.8,29.90,NNE,17,0.0,1.0,87,0.00,,,0.01,0,Wunderground v.1.15,2017-04-30 03:44:00,
2017-04-30 05:49:00,57.6,53.8,29.90,NNE,17,0.0,1.0,87,0.00,,,0.01,0,Wunderground v.1.15,2017-04-30 03:49:00,
2017-04-30 05:56:00,57.7,53.9,29.90,NNE,17,0.0,0.0,87,0.00,,,0.01,0,Wunderground v.1.15,2017-04-30 03:56:00,
2017-04-30 06:01:00,57.7,53.9,29.90,NNE,17,0.0,0.0,87,0.00,,,0.01,0,Wunderground v.1.15,2017-04-30 04:01:00,
2017-04-30 06:06:00,57.7,53.9,29.90,NNE,17,0.0,0.0,87,0.00,,,0.01,0,Wunderground v.1.15,2017-04-30 04:06:00,
2017-04-30 06:12:00,57.6,53.8,29.90,NNE,17,0.0,0.0,87,0.00,,,0.01,0,Wunderground v.1.15,2017-04-30 04:12:00,
2017-04-30 06:17:00,57.6,53.8,29.90,NNE,17,0.0,0.0,87,0.00,,,0.01,0,Wunderground v.1.15,2017-04-30 04:17:00,
2017-04-30 06:22:00,57.6,53.8,29.90,NNE,17,0.0,0.0,87,0.00,,,0.01,0,Wunderground v.1.15,2017-04-30 04:22:00,
2017-04-30 06:28:00,57.7,53.9,29.90,NNE,17,0.0,0.0,87,0.00,,,0.01,0,Wunderground v.1.15,2017-04-30 04:28:00,
2017-04-30 06:33:00,57.6,53.8,29.90,NNE,17,0.0,0.0,87,0.00,,,0.01,0,Wunderground v.1.15,2017-04-30 04:33:00,
2017-04-30 06:38:00,57.6,53.8,29.90,NNE,17,0.0,0.0,87,0.00,,,0.01,0,Wunderground v.1.15,2017-04-30 04:38:00,
2017-04-30 06:44:00,57.6,53.8,29.90,NNE,17,0.0,0.0,87,0.00,,,0.01,0,Wunderground v.1.15,2017-04-30 04:44:00,
2017-04-30 06:49:00,57.6,53.8,29.91,NNE,17,0.0,0.0,87,0.00,,,0.01,0,Wunderground v.1.15,2017-04-30 04:49:00,
2017-04-30 06:54:00,57.6,53.8,29.91,NNE,14,0.0,0.0,87,0.00,,,0.01,0,Wunderground v.1.15,2017-04-30 04:54:00,
2017-04-30 07:00:00,57.6,53.4,29.91,North,11,0.0,0.0,86,0.00,,,0.01,0,Wunderground v.1.15,2017-04-30 05:00:00,
2017-04-30 07:05:00,57.6,53.4,29.91,North,6,0.0,0.0,86,0.00,,,0.01,0,Wunderground v.1.15,2017-04-30 05:05:00,
2017-04-30 07:10:00,57.6,53.4,29.91,North,6,0.0,0.0,86,0.00,,,0.01,0,Wunderground v.1.15,2017-04-30 05:10:00,
2017-04-30 07:16:00,57.6,53.4,29.91,North,6,0.0,0.0,86,0.00,,,0.01,5,Wunderground v.1.15,2017-04-30 05:16:00,
2017-04-30 07:21:00,57.6,53.4,29.91,North,6,0.0,0.0,86,0.00,,,0.01,5,Wunderground v.1.15,2017-04-30 05:21:00,
2017-04-30 07:26:00,57.6,53.4,29.91,North,6,0.0,0.0,86,0.00,,,0.01,5,Wunderground v.1.15,2017-04-30 05:26:00,
2017-04-30 07:32:00,57.6,53.4,29.91,North,6,0.0,0.0,86,0.00,,,0.01,7,Wunderground v.1.15,2017-04-30 05:32:00,
2017-04-30 07:37:00,57.4,53.2,29.91,North,6,0.0,0.0,86,0.00,,,0.01,12,Wunderground v.1.15,2017-04-30 05:37:00,
2017-04-30 07:42:00,57.4,53.2,29.91,NNE,28,2.0,5.0,86,0.00,,,0.01,14,Wunderground v.1.15,2017-04-30 05:42:00,
2017-04-30 07:48:00,57.3,53.1,29.91,NNE,30,0.0,2.0,86,0.00,,,0.01,21,Wunderground v.1.15,2017-04-30 05:48:00,
2017-04-30 07:53:00,57.3,53.1,29.91,NNE,28,0.0,2.0,86,0.00,,,0.01,26,Wunderground v.1.15,2017-04-30 05:53:00,
2017-04-30 07:58:00,57.4,53.2,29.91,North,0,0.0,4.0,86,0.00,,,0.01,32,Wunderground v.1.15,2017-04-30 05:58:00,
2017-04-30 08:04:00,57.3,53.1,29.92,North,0,0.0,0.0,86,0.00,,,0.01,28,Wunderground v.1.15,2017-04-30 06:04:00,
2017-04-30 08:09:00,57.3,53.1,29.92,North,0,0.0,0.0,86,0.00,,,0.01,26,Wunderground v.1.15,2017-04-30 06:09:00,
2017-04-30 08:14:00,57.3,52.8,29.92,North,356,0.0,0.0,85,0.00,,,0.01,25,Wunderground v.1.15,2017-04-30 06:14:00,
2017-04-30 08:20:00,57.1,52.6,29.92,North,356,0.0,0.0,85,0.00,,,0.01,25,Wunderground v.1.15,2017-04-30 06:20:00,
2017-04-30 08:25:00,57.1,52.6,29.92,North,357,0.0,0.0,85,0.00,,,0.01,48,Wunderground v.1.15,2017-04-30 06:25:00,
2017-04-30 08:30:00,57.1,52.6,29.92,NNE,24,5.0,6.0,85,0.00,,,0.01,49,Wunderground v.1.15,2017-04-30 06:30:00,
2017-04-30 08:36:00,57.3,52.8,29.92,NNE,21,0.0,5.0,85,0.00,,,0.01,56,Wunderground v.1.15,2017-04-30 06:36:00,